Beryl Junction, Utah
Current Conditions -  °F | °C
As of 9:53 PM on Friday 19 Dec 2014 (Local Time) from KCDC Reporting Station
Broken Clouds Broken Clouds  
Wind Chill: -2°   Ceiling: 10000
Heat Index:   Visibility: 10mi
Dew Point: -3°   Wind: 7mph
Humidity: 72%   Direction: 170°S
Pressure: 30.16"   Gusts: NA
Location:  38.0286°N, 113.572°W
Report Text: KCDC 200453Z AUTO 17006KT 10SM BKN100 BKN120 02/M03 A3016 RMK AO2 SLP219 T00171028
Loading
Personal Weather Stations






























Interactive Weather Map New forecast layout! Learn more

10-Day Weather Forecast

Advertisements
Track Severe Weather on mobile